CheckWX is a tool to help pilots better visualize weather data.  It is not intended as a substitute for an official pre-flight weather briefing.

02:37:09 UTC

KSBM METAR
Sheboygan County Memorial Airport
Sheboygan, Wisconsin, USA
Current

44 mins ago

KSBM 230153Z AUTO 00000KT 10SM CLR M02/M04 A3023 RMK AO2 SLP247 T10171039
Observed
Mar-23 @ 01:53 UTC
Visibility
10 SM
Flight Rules
VFR
Cloud Levels
  • Clear skies
Temperature
-2°C / 28°F
Dewpoint
-4°C / 25°F
Humidity
86%
Altimeter
30.23" Hg
Pressure
1024.7 hPa
Previous

2 hours ago

KSBM 230053Z AUTO 08004KT 10SM CLR M01/M04 A3021 RMK AO2 SLP241 T10061039
Observed
Mar-23 @ 00:53 UTC
Wind
  • 080° at 4 KTS
Visibility
10 SM
Flight Rules
VFR
Cloud Levels
  • Clear skies
Temperature
-1°C / 30°F
Dewpoint
-4°C / 25°F
Humidity
80%
Altimeter
30.21" Hg
Pressure
1024.1 hPa
Previous

3 hours ago

KSBM 222353Z AUTO 07006KT 10SM CLR 01/M03 A3021 RMK AO2 SLP239 T00111033 10056 20011 53011
Observed
Mar-22 @ 23:53 UTC
Wind
  • 070° at 6 KTS
Visibility
10 SM
Flight Rules
VFR
Cloud Levels
  • Clear skies
Temperature
C / 34°F
Dewpoint
-3°C / 27°F
Humidity
75%
Altimeter
30.21" Hg
Pressure
1023.9 hPa